Logan - 24 Hour Table
Date & TimeSolar
Radiation
(W/m²)
Wind
Speed
(mph)
Wind
Direction
(degrees)
Air
Temperature
(°F)
Relative
Humidity
(%)
Precipitation
(inches)
Barometric
Pressure
(inHg)
2019/02/17 19:00 0 1.7 19 26.3 85 0.00 29.86
2019/02/17 18:00 36 1.2 322 27.2 85 0.00 29.84
2019/02/17 17:00 142 1.2 316 29.6 78 0.00 29.83
2019/02/17 16:00 231 1.0 306 30.5 77 0.00 29.83
2019/02/17 15:00 300 1.2 327 30.4 76 0.00 29.83
2019/02/17 14:00 369 2.1 332 30.0 80 0.00 29.83
2019/02/17 13:00 591 3.3 340 30.2 84 0.00 29.84
2019/02/17 12:00 436 3.3 335 29.0 85 0.00 29.86
2019/02/17 11:00 293 2.9 333 26.7 87 0.00 29.86
2019/02/17 10:00 244 1.5 351 25.4 90 0.04 29.86
2019/02/17 09:00 74 1.5 302 22.2 94 0.00 29.86
2019/02/17 08:00 6 1.6 176 21.9 93 0.00 29.85
2019/02/17 07:00 0 1.2 86 20.6 96 0.00 29.84
2019/02/17 06:00 0 1.1 220 20.7 97 0.00 29.85
2019/02/17 05:00 0 0.9 120 20.7 97 0.00 29.84
2019/02/17 04:00 0 1.5 19 19.1 97 0.00 29.84
2019/02/17 03:00 0 1.2 244 21.9 98 0.00 29.84
2019/02/17 02:00 0 1.3 197 24.5 98 0.00 29.85
2019/02/17 01:00 0 0.8 351 25.1 98 0.00 29.85
2019/02/17 00:00 0 0.3 73 25.2 98 0.00 29.85
2019/02/16 23:00 0 0.8 33 25.2 98 0.00 29.85
2019/02/16 22:00 0 1.3 322 25.3 99 0.00 29.85
2019/02/16 21:00 0 1.2 276 25.1 98 0.00 29.84
2019/02/16 20:00 0 1.6 38 26.3 98 0.00 29.84